sensor_id;sensor_type;location;lat;lon;timestamp;P1;durP1;ratioP1;P2;durP2;ratioP2
27225;SDS011;14732;51.074;3.788;2023-04-06T00:01:48;21.23;;;10.90;;
27225;SDS011;14732;51.074;3.788;2023-04-06T00:04:15;23.15;;;11.60;;
27225;SDS011;14732;51.074;3.788;2023-04-06T00:06:41;22.00;;;12.25;;
27225;SDS011;14732;51.074;3.788;2023-04-06T00:09:07;26.42;;;11.32;;
27225;SDS011;14732;51.074;3.788;2023-04-06T00:11:33;21.08;;;11.15;;
27225;SDS011;14732;51.074;3.788;2023-04-06T00:13:59;18.38;;;10.98;;
27225;SDS011;14732;51.074;3.788;2023-04-06T00:16:25;21.92;;;11.02;;
27225;SDS011;14732;51.074;3.788;2023-04-06T00:18:51;21.70;;;12.25;;
27225;SDS011;14732;51.074;3.788;2023-04-06T00:21:17;21.25;;;11.63;;
27225;SDS011;14732;51.074;3.788;2023-04-06T00:23:42;20.13;;;11.98;;
27225;SDS011;14732;51.074;3.788;2023-04-06T00:26:08;23.17;;;12.57;;
27225;SDS011;14732;51.074;3.788;2023-04-06T00:28:36;21.95;;;12.00;;
27225;SDS011;14732;51.074;3.788;2023-04-06T00:31:02;24.55;;;12.77;;
27225;SDS011;14732;51.074;3.788;2023-04-06T00:33:28;21.70;;;12.00;;
27225;SDS011;14732;51.074;3.788;2023-04-06T00:35:54;21.67;;;11.43;;
27225;SDS011;14732;51.074;3.788;2023-04-06T00:38:20;27.25;;;12.52;;
27225;SDS011;14732;51.074;3.788;2023-04-06T00:40:46;21.77;;;12.45;;
27225;SDS011;14732;51.074;3.788;2023-04-06T00:43:12;24.35;;;12.35;;
27225;SDS011;14732;51.074;3.788;2023-04-06T00:45:38;22.58;;;12.10;;
27225;SDS011;14732;51.074;3.788;2023-04-06T00:48:05;20.85;;;11.85;;
27225;SDS011;14732;51.074;3.788;2023-04-06T00:50:32;24.83;;;13.40;;
27225;SDS011;14732;51.074;3.788;2023-04-06T00:53:01;23.15;;;12.77;;
27225;SDS011;14732;51.074;3.788;2023-04-06T00:55:27;21.57;;;12.13;;
27225;SDS011;14732;51.074;3.788;2023-04-06T00:57:53;22.70;;;12.40;;
27225;SDS011;14732;51.074;3.788;2023-04-06T01:00:21;22.45;;;12.40;;
27225;SDS011;14732;51.074;3.788;2023-04-06T01:02:47;21.38;;;12.88;;
27225;SDS011;14732;51.074;3.788;2023-04-06T01:05:14;24.00;;;12.68;;
27225;SDS011;14732;51.074;3.788;2023-04-06T01:07:39;22.25;;;12.15;;
27225;SDS011;14732;51.074;3.788;2023-04-06T01:10:05;20.08;;;12.00;;
27225;SDS011;14732;51.074;3.788;2023-04-06T01:12:31;27.00;;;13.45;;
27225;SDS011;14732;51.074;3.788;2023-04-06T01:14:57;23.73;;;13.15;;
27225;SDS011;14732;51.074;3.788;2023-04-06T01:17:23;23.75;;;12.52;;
27225;SDS011;14732;51.074;3.788;2023-04-06T01:19:48;22.83;;;13.00;;
27225;SDS011;14732;51.074;3.788;2023-04-06T01:22:17;25.48;;;12.70;;
27225;SDS011;14732;51.074;3.788;2023-04-06T01:24:43;24.63;;;13.57;;
27225;SDS011;14732;51.074;3.788;2023-04-06T01:27:09;20.35;;;12.68;;
27225;SDS011;14732;51.074;3.788;2023-04-06T01:29:35;31.35;;;14.15;;
27225;SDS011;14732;51.074;3.788;2023-04-06T01:32:01;23.27;;;13.30;;
27225;SDS011;14732;51.074;3.788;2023-04-06T01:34:27;24.50;;;13.82;;
27225;SDS011;14732;51.074;3.788;2023-04-06T01:36:53;27.33;;;13.77;;
27225;SDS011;14732;51.074;3.788;2023-04-06T01:39:19;23.40;;;14.10;;
27225;SDS011;14732;51.074;3.788;2023-04-06T01:41:45;30.38;;;14.02;;
27225;SDS011;14732;51.074;3.788;2023-04-06T01:44:17;27.33;;;14.27;;
27225;SDS011;14732;51.074;3.788;2023-04-06T01:46:43;24.73;;;14.10;;
27225;SDS011;14732;51.074;3.788;2023-04-06T01:49:10;23.15;;;14.20;;
27225;SDS011;14732;51.074;3.788;2023-04-06T01:51:36;24.33;;;13.82;;
27225;SDS011;14732;51.074;3.788;2023-04-06T01:54:02;26.95;;;14.40;;
27225;SDS011;14732;51.074;3.788;2023-04-06T01:56:28;26.55;;;14.10;;
27225;SDS011;14732;51.074;3.788;2023-04-06T01:58:53;28.30;;;14.35;;
27225;SDS011;14732;51.074;3.788;2023-04-06T02:01:20;25.85;;;14.40;;
27225;SDS011;14732;51.074;3.788;2023-04-06T02:03:49;23.87;;;14.23;;
27225;SDS011;14732;51.074;3.788;2023-04-06T02:06:15;21.85;;;13.98;;
27225;SDS011;14732;51.074;3.788;2023-04-06T02:08:40;26.75;;;15.02;;
27225;SDS011;14732;51.074;3.788;2023-04-06T02:11:06;25.20;;;14.98;;
27225;SDS011;14732;51.074;3.788;2023-04-06T02:13:31;26.48;;;14.63;;
27225;SDS011;14732;51.074;3.788;2023-04-06T02:15:57;25.50;;;15.05;;
27225;SDS011;14732;51.074;3.788;2023-04-06T02:18:23;28.50;;;15.13;;
27225;SDS011;14732;51.074;3.788;2023-04-06T02:20:49;25.52;;;15.13;;
27225;SDS011;14732;51.074;3.788;2023-04-06T02:23:15;26.48;;;14.60;;
27225;SDS011;14732;51.074;3.788;2023-04-06T02:25:40;28.25;;;15.18;;
27225;SDS011;14732;51.074;3.788;2023-04-06T02:28:06;26.80;;;15.70;;
27225;SDS011;14732;51.074;3.788;2023-04-06T02:30:35;24.88;;;13.98;;
27225;SDS011;14732;51.074;3.788;2023-04-06T02:33:01;26.05;;;15.30;;
27225;SDS011;14732;51.074;3.788;2023-04-06T02:35:27;26.83;;;15.38;;
27225;SDS011;14732;51.074;3.788;2023-04-06T02:37:54;25.73;;;13.88;;
27225;SDS011;14732;51.074;3.788;2023-04-06T02:40:20;25.48;;;14.60;;
27225;SDS011;14732;51.074;3.788;2023-04-06T02:42:45;24.88;;;14.75;;
27225;SDS011;14732;51.074;3.788;2023-04-06T02:45:11;24.08;;;14.20;;
27225;SDS011;14732;51.074;3.788;2023-04-06T02:47:37;24.83;;;15.35;;
27225;SDS011;14732;51.074;3.788;2023-04-06T02:50:03;27.30;;;15.48;;
27225;SDS011;14732;51.074;3.788;2023-04-06T02:52:29;26.35;;;14.73;;
27225;SDS011;14732;51.074;3.788;2023-04-06T02:54:54;24.27;;;14.57;;
27225;SDS011;14732;51.074;3.788;2023-04-06T02:57:20;29.67;;;14.95;;
27225;SDS011;14732;51.074;3.788;2023-04-06T02:59:46;27.98;;;15.73;;
27225;SDS011;14732;51.074;3.788;2023-04-06T03:02:11;29.65;;;15.13;;
27225;SDS011;14732;51.074;3.788;2023-04-06T03:04:37;27.83;;;15.77;;
27225;SDS011;14732;51.074;3.788;2023-04-06T03:07:03;25.02;;;15.52;;
27225;SDS011;14732;51.074;3.788;2023-04-06T03:09:28;32.03;;;15.77;;
27225;SDS011;14732;51.074;3.788;2023-04-06T03:11:54;27.55;;;15.48;;
27225;SDS011;14732;51.074;3.788;2023-04-06T03:14:20;25.83;;;16.02;;
27225;SDS011;14732;51.074;3.788;2023-04-06T03:16:47;29.38;;;15.68;;
27225;SDS011;14732;51.074;3.788;2023-04-06T03:19:13;33.67;;;17.23;;
27225;SDS011;14732;51.074;3.788;2023-04-06T03:21:40;37.95;;;18.88;;
27225;SDS011;14732;51.074;3.788;2023-04-06T03:24:06;36.30;;;19.85;;
27225;SDS011;14732;51.074;3.788;2023-04-06T03:26:32;38.75;;;20.55;;
27225;SDS011;14732;51.074;3.788;2023-04-06T03:28:58;36.97;;;21.05;;
27225;SDS011;14732;51.074;3.788;2023-04-06T03:31:24;40.63;;;22.02;;
27225;SDS011;14732;51.074;3.788;2023-04-06T03:33:50;46.83;;;21.33;;
27225;SDS011;14732;51.074;3.788;2023-04-06T03:36:16;37.15;;;19.40;;
27225;SDS011;14732;51.074;3.788;2023-04-06T03:38:42;38.65;;;21.60;;
27225;SDS011;14732;51.074;3.788;2023-04-06T03:41:07;39.15;;;21.35;;
27225;SDS011;14732;51.074;3.788;2023-04-06T03:43:33;37.53;;;21.00;;
27225;SDS011;14732;51.074;3.788;2023-04-06T03:45:58;42.28;;;21.38;;
27225;SDS011;14732;51.074;3.788;2023-04-06T03:48:24;40.28;;;21.65;;
27225;SDS011;14732;51.074;3.788;2023-04-06T03:50:50;41.28;;;20.92;;
27225;SDS011;14732;51.074;3.788;2023-04-06T03:53:15;38.75;;;20.35;;
27225;SDS011;14732;51.074;3.788;2023-04-06T03:55:41;43.13;;;22.52;;
27225;SDS011;14732;51.074;3.788;2023-04-06T03:58:07;41.15;;;21.85;;
27225;SDS011;14732;51.074;3.788;2023-04-06T04:00:32;41.95;;;22.52;;
27225;SDS011;14732;51.074;3.788;2023-04-06T04:02:58;39.00;;;20.67;;
27225;SDS011;14732;51.074;3.788;2023-04-06T04:05:24;44.40;;;21.13;;
27225;SDS011;14732;51.074;3.788;2023-04-06T04:07:50;42.85;;;21.80;;
27225;SDS011;14732;51.074;3.788;2023-04-06T04:10:17;45.22;;;21.80;;
27225;SDS011;14732;51.074;3.788;2023-04-06T04:12:43;40.65;;;21.58;;
27225;SDS011;14732;51.074;3.788;2023-04-06T04:15:08;41.58;;;20.92;;
27225;SDS011;14732;51.074;3.788;2023-04-06T04:17:34;42.88;;;22.75;;
27225;SDS011;14732;51.074;3.788;2023-04-06T04:20:00;41.08;;;22.25;;
27225;SDS011;14732;51.074;3.788;2023-04-06T04:22:26;43.17;;;22.58;;
27225;SDS011;14732;51.074;3.788;2023-04-06T04:24:52;40.53;;;22.10;;
27225;SDS011;14732;51.074;3.788;2023-04-06T04:27:18;37.17;;;21.45;;
27225;SDS011;14732;51.074;3.788;2023-04-06T04:29:47;44.50;;;22.42;;
27225;SDS011;14732;51.074;3.788;2023-04-06T04:32:13;40.13;;;21.55;;
27225;SDS011;14732;51.074;3.788;2023-04-06T04:34:38;43.05;;;22.05;;
27225;SDS011;14732;51.074;3.788;2023-04-06T04:37:07;40.17;;;21.23;;
27225;SDS011;14732;51.074;3.788;2023-04-06T04:39:32;41.67;;;21.48;;
27225;SDS011;14732;51.074;3.788;2023-04-06T04:41:58;36.42;;;21.27;;
27225;SDS011;14732;51.074;3.788;2023-04-06T04:44:24;36.70;;;21.13;;
27225;SDS011;14732;51.074;3.788;2023-04-06T04:46:50;39.45;;;21.52;;
27225;SDS011;14732;51.074;3.788;2023-04-06T04:49:15;37.78;;;20.75;;
27225;SDS011;14732;51.074;3.788;2023-04-06T04:51:41;43.75;;;21.63;;
27225;SDS011;14732;51.074;3.788;2023-04-06T04:54:10;35.50;;;20.05;;
27225;SDS011;14732;51.074;3.788;2023-04-06T04:56:35;42.20;;;20.73;;
27225;SDS011;14732;51.074;3.788;2023-04-06T04:59:01;38.25;;;20.55;;
27225;SDS011;14732;51.074;3.788;2023-04-06T05:01:27;39.45;;;21.23;;
27225;SDS011;14732;51.074;3.788;2023-04-06T05:03:52;36.17;;;20.58;;
27225;SDS011;14732;51.074;3.788;2023-04-06T05:06:19;44.15;;;20.95;;
27225;SDS011;14732;51.074;3.788;2023-04-06T05:08:44;37.75;;;21.00;;
27225;SDS011;14732;51.074;3.788;2023-04-06T05:11:10;37.30;;;20.70;;
27225;SDS011;14732;51.074;3.788;2023-04-06T05:13:39;40.70;;;21.08;;
27225;SDS011;14732;51.074;3.788;2023-04-06T05:16:05;37.55;;;19.80;;
27225;SDS011;14732;51.074;3.788;2023-04-06T05:18:31;36.65;;;20.92;;
27225;SDS011;14732;51.074;3.788;2023-04-06T05:20:56;37.63;;;20.65;;
27225;SDS011;14732;51.074;3.788;2023-04-06T05:23:22;38.45;;;20.60;;
27225;SDS011;14732;51.074;3.788;2023-04-06T05:25:48;33.97;;;19.17;;
27225;SDS011;14732;51.074;3.788;2023-04-06T05:28:14;32.95;;;19.52;;
27225;SDS011;14732;51.074;3.788;2023-04-06T05:30:41;39.15;;;20.50;;
27225;SDS011;14732;51.074;3.788;2023-04-06T05:33:07;35.15;;;19.50;;
27225;SDS011;14732;51.074;3.788;2023-04-06T05:35:34;33.63;;;19.77;;
27225;SDS011;14732;51.074;3.788;2023-04-06T05:38:00;33.72;;;18.90;;
27225;SDS011;14732;51.074;3.788;2023-04-06T05:40:25;33.83;;;19.52;;
27225;SDS011;14732;51.074;3.788;2023-04-06T05:42:51;39.70;;;20.23;;
27225;SDS011;14732;51.074;3.788;2023-04-06T05:45:17;35.47;;;19.67;;
27225;SDS011;14732;51.074;3.788;2023-04-06T05:47:43;32.92;;;19.55;;
27225;SDS011;14732;51.074;3.788;2023-04-06T05:50:14;40.00;;;20.08;;
27225;SDS011;14732;51.074;3.788;2023-04-06T05:52:40;37.75;;;19.45;;
27225;SDS011;14732;51.074;3.788;2023-04-06T05:55:08;30.40;;;19.42;;
27225;SDS011;14732;51.074;3.788;2023-04-06T05:57:35;38.40;;;20.05;;
27225;SDS011;14732;51.074;3.788;2023-04-06T06:00:00;38.08;;;19.63;;
27225;SDS011;14732;51.074;3.788;2023-04-06T06:02:30;40.85;;;21.65;;
27225;SDS011;14732;51.074;3.788;2023-04-06T06:04:56;35.72;;;20.48;;
27225;SDS011;14732;51.074;3.788;2023-04-06T06:07:21;39.38;;;20.40;;
27225;SDS011;14732;51.074;3.788;2023-04-06T06:09:48;37.40;;;20.27;;
27225;SDS011;14732;51.074;3.788;2023-04-06T06:12:13;35.55;;;20.02;;
27225;SDS011;14732;51.074;3.788;2023-04-06T06:14:39;34.40;;;19.23;;
27225;SDS011;14732;51.074;3.788;2023-04-06T06:17:05;35.78;;;19.27;;
27225;SDS011;14732;51.074;3.788;2023-04-06T06:19:30;36.88;;;19.10;;
27225;SDS011;14732;51.074;3.788;2023-04-06T06:21:56;35.47;;;18.58;;
27225;SDS011;14732;51.074;3.788;2023-04-06T06:24:22;34.10;;;18.23;;
27225;SDS011;14732;51.074;3.788;2023-04-06T06:26:47;31.25;;;17.42;;
27225;SDS011;14732;51.074;3.788;2023-04-06T06:29:13;30.10;;;16.58;;
27225;SDS011;14732;51.074;3.788;2023-04-06T06:31:40;31.27;;;16.73;;
27225;SDS011;14732;51.074;3.788;2023-04-06T06:34:05;31.13;;;16.20;;
27225;SDS011;14732;51.074;3.788;2023-04-06T06:36:31;32.15;;;16.05;;
27225;SDS011;14732;51.074;3.788;2023-04-06T06:38:57;27.25;;;15.75;;
27225;SDS011;14732;51.074;3.788;2023-04-06T06:41:23;27.77;;;14.57;;
27225;SDS011;14732;51.074;3.788;2023-04-06T06:43:51;28.17;;;15.05;;
27225;SDS011;14732;51.074;3.788;2023-04-06T06:46:16;26.50;;;14.27;;
27225;SDS011;14732;51.074;3.788;2023-04-06T06:48:42;24.45;;;13.80;;
27225;SDS011;14732;51.074;3.788;2023-04-06T06:51:08;24.48;;;13.60;;
27225;SDS011;14732;51.074;3.788;2023-04-06T06:53:34;24.52;;;13.23;;
27225;SDS011;14732;51.074;3.788;2023-04-06T06:56:00;22.08;;;12.20;;
27225;SDS011;14732;51.074;3.788;2023-04-06T06:58:26;24.13;;;12.13;;
27225;SDS011;14732;51.074;3.788;2023-04-06T07:00:55;24.67;;;12.48;;
27225;SDS011;14732;51.074;3.788;2023-04-06T07:03:22;18.95;;;11.05;;
27225;SDS011;14732;51.074;3.788;2023-04-06T07:05:51;17.70;;;10.25;;
27225;SDS011;14732;51.074;3.788;2023-04-06T07:08:20;21.48;;;10.60;;
27225;SDS011;14732;51.074;3.788;2023-04-06T07:10:47;15.40;;;9.48;;
27225;SDS011;14732;51.074;3.788;2023-04-06T07:13:13;17.13;;;9.48;;
27225;SDS011;14732;51.074;3.788;2023-04-06T07:15:46;21.27;;;10.23;;
27225;SDS011;14732;51.074;3.788;2023-04-06T07:18:12;18.17;;;9.52;;
27225;SDS011;14732;51.074;3.788;2023-04-06T07:20:38;15.10;;;9.38;;
27225;SDS011;14732;51.074;3.788;2023-04-06T07:23:04;13.38;;;8.25;;
27225;SDS011;14732;51.074;3.788;2023-04-06T07:25:30;16.30;;;7.72;;
27225;SDS011;14732;51.074;3.788;2023-04-06T07:27:56;19.70;;;8.13;;
27225;SDS011;14732;51.074;3.788;2023-04-06T07:30:21;12.23;;;7.15;;
27225;SDS011;14732;51.074;3.788;2023-04-06T07:32:47;12.27;;;7.43;;
27225;SDS011;14732;51.074;3.788;2023-04-06T07:35:14;13.55;;;7.30;;
27225;SDS011;14732;51.074;3.788;2023-04-06T07:37:40;12.68;;;6.68;;
27225;SDS011;14732;51.074;3.788;2023-04-06T07:40:07;9.95;;;6.63;;
27225;SDS011;14732;51.074;3.788;2023-04-06T07:42:33;11.73;;;6.57;;
27225;SDS011;14732;51.074;3.788;2023-04-06T07:44:59;10.18;;;6.45;;
27225;SDS011;14732;51.074;3.788;2023-04-06T07:47:25;11.82;;;6.95;;
27225;SDS011;14732;51.074;3.788;2023-04-06T07:49:51;17.58;;;7.22;;
27225;SDS011;14732;51.074;3.788;2023-04-06T07:52:16;13.55;;;7.47;;
27225;SDS011;14732;51.074;3.788;2023-04-06T07:54:42;14.10;;;7.65;;
27225;SDS011;14732;51.074;3.788;2023-04-06T07:57:08;14.95;;;8.55;;
27225;SDS011;14732;51.074;3.788;2023-04-06T07:59:33;13.90;;;9.13;;
27225;SDS011;14732;51.074;3.788;2023-04-06T08:01:59;17.77;;;9.50;;
27225;SDS011;14732;51.074;3.788;2023-04-06T08:04:25;33.35;;;17.05;;
27225;SDS011;14732;51.074;3.788;2023-04-06T08:06:51;31.95;;;17.55;;
27225;SDS011;14732;51.074;3.788;2023-04-06T08:09:16;17.52;;;10.27;;
27225;SDS011;14732;51.074;3.788;2023-04-06T08:11:42;12.23;;;8.23;;
27225;SDS011;14732;51.074;3.788;2023-04-06T08:14:09;17.27;;;9.30;;
27225;SDS011;14732;51.074;3.788;2023-04-06T08:16:35;15.98;;;8.68;;
27225;SDS011;14732;51.074;3.788;2023-04-06T08:19:01;22.45;;;12.10;;
27225;SDS011;14732;51.074;3.788;2023-04-06T08:21:26;16.08;;;10.27;;
27225;SDS011;14732;51.074;3.788;2023-04-06T08:23:52;14.98;;;9.65;;
27225;SDS011;14732;51.074;3.788;2023-04-06T08:26:17;17.48;;;9.90;;
27225;SDS011;14732;51.074;3.788;2023-04-06T08:28:43;20.33;;;11.98;;
27225;SDS011;14732;51.074;3.788;2023-04-06T08:31:09;16.02;;;9.60;;
27225;SDS011;14732;51.074;3.788;2023-04-06T08:33:35;15.43;;;9.98;;
27225;SDS011;14732;51.074;3.788;2023-04-06T08:36:11;17.10;;;9.80;;
27225;SDS011;14732;51.074;3.788;2023-04-06T08:38:38;15.88;;;10.07;;
27225;SDS011;14732;51.074;3.788;2023-04-06T08:41:12;16.17;;;9.57;;
27225;SDS011;14732;51.074;3.788;2023-04-06T08:46:14;16.60;;;10.43;;
27225;SDS011;14732;51.074;3.788;2023-04-06T08:48:40;17.63;;;11.05;;
27225;SDS011;14732;51.074;3.788;2023-04-06T08:51:07;18.15;;;10.55;;
27225;SDS011;14732;51.074;3.788;2023-04-06T08:53:34;17.70;;;10.18;;
27225;SDS011;14732;51.074;3.788;2023-04-06T08:56:00;17.20;;;9.75;;
27225;SDS011;14732;51.074;3.788;2023-04-06T08:58:28;20.40;;;11.15;;
27225;SDS011;14732;51.074;3.788;2023-04-06T09:00:57;21.88;;;10.77;;
27225;SDS011;14732;51.074;3.788;2023-04-06T09:03:23;19.80;;;11.13;;
27225;SDS011;14732;51.074;3.788;2023-04-06T09:05:52;18.30;;;11.02;;
27225;SDS011;14732;51.074;3.788;2023-04-06T09:08:18;21.35;;;10.95;;
27225;SDS011;14732;51.074;3.788;2023-04-06T09:10:44;22.60;;;11.50;;
27225;SDS011;14732;51.074;3.788;2023-04-06T09:13:11;18.50;;;10.82;;
27225;SDS011;14732;51.074;3.788;2023-04-06T09:15:40;20.88;;;11.40;;
27225;SDS011;14732;51.074;3.788;2023-04-06T09:18:06;19.75;;;11.55;;
27225;SDS011;14732;51.074;3.788;2023-04-06T09:20:33;22.88;;;11.15;;
27225;SDS011;14732;51.074;3.788;2023-04-06T09:22:58;21.52;;;11.10;;
27225;SDS011;14732;51.074;3.788;2023-04-06T09:25:24;19.08;;;10.88;;
27225;SDS011;14732;51.074;3.788;2023-04-06T09:27:58;18.02;;;10.80;;
27225;SDS011;14732;51.074;3.788;2023-04-06T09:30:29;20.27;;;10.30;;
27225;SDS011;14732;51.074;3.788;2023-04-06T09:32:56;16.20;;;9.93;;
27225;SDS011;14732;51.074;3.788;2023-04-06T09:35:22;18.75;;;11.25;;
27225;SDS011;14732;51.074;3.788;2023-04-06T09:37:50;19.30;;;9.77;;
27225;SDS011;14732;51.074;3.788;2023-04-06T09:40:16;19.35;;;10.63;;
27225;SDS011;14732;51.074;3.788;2023-04-06T09:42:47;18.50;;;11.77;;
27225;SDS011;14732;51.074;3.788;2023-04-06T09:45:16;17.73;;;9.98;;
27225;SDS011;14732;51.074;3.788;2023-04-06T09:47:43;18.95;;;10.07;;
27225;SDS011;14732;51.074;3.788;2023-04-06T09:50:10;17.42;;;10.45;;
27225;SDS011;14732;51.074;3.788;2023-04-06T09:52:40;18.23;;;9.82;;
27225;SDS011;14732;51.074;3.788;2023-04-06T09:55:08;18.35;;;10.70;;
27225;SDS011;14732;51.074;3.788;2023-04-06T10:00:32;16.15;;;10.20;;
27225;SDS011;14732;51.074;3.788;2023-04-06T10:03:14;17.02;;;10.70;;
27225;SDS011;14732;51.074;3.788;2023-04-06T10:08:42;17.48;;;10.40;;
27225;SDS011;14732;51.074;3.788;2023-04-06T10:11:11;15.53;;;11.03;;
27225;SDS011;14732;51.074;3.788;2023-04-06T10:13:37;19.83;;;11.55;;
27225;SDS011;14732;51.074;3.788;2023-04-06T10:16:03;21.80;;;11.18;;
27225;SDS011;14732;51.074;3.788;2023-04-06T10:18:32;19.13;;;11.73;;
27225;SDS011;14732;51.074;3.788;2023-04-06T10:21:14;18.73;;;12.20;;
27225;SDS011;14732;51.074;3.788;2023-04-06T10:23:46;21.42;;;11.70;;
27225;SDS011;14732;51.074;3.788;2023-04-06T10:26:14;20.67;;;11.43;;
27225;SDS011;14732;51.074;3.788;2023-04-06T10:28:41;19.73;;;11.88;;
27225;SDS011;14732;51.074;3.788;2023-04-06T10:31:08;23.02;;;13.18;;
27225;SDS011;14732;51.074;3.788;2023-04-06T10:33:34;20.88;;;12.13;;
27225;SDS011;14732;51.074;3.788;2023-04-06T10:36:21;19.42;;;11.93;;
27225;SDS011;14732;51.074;3.788;2023-04-06T10:38:53;21.60;;;12.02;;
27225;SDS011;14732;51.074;3.788;2023-04-06T10:41:23;20.13;;;11.98;;
27225;SDS011;14732;51.074;3.788;2023-04-06T10:43:56;22.38;;;12.13;;
27225;SDS011;14732;51.074;3.788;2023-04-06T10:46:30;19.35;;;11.30;;
27225;SDS011;14732;51.074;3.788;2023-04-06T10:48:56;20.95;;;11.98;;
27225;SDS011;14732;51.074;3.788;2023-04-06T10:51:27;20.10;;;12.30;;
27225;SDS011;14732;51.074;3.788;2023-04-06T10:53:57;17.40;;;10.90;;
27225;SDS011;14732;51.074;3.788;2023-04-06T10:56:24;22.17;;;11.70;;
27225;SDS011;14732;51.074;3.788;2023-04-06T10:58:53;17.67;;;11.57;;
27225;SDS011;14732;51.074;3.788;2023-04-06T11:01:24;18.98;;;11.80;;
27225;SDS011;14732;51.074;3.788;2023-04-06T11:03:54;19.43;;;11.53;;
27225;SDS011;14732;51.074;3.788;2023-04-06T11:06:26;18.38;;;11.02;;
27225;SDS011;14732;51.074;3.788;2023-04-06T11:08:54;18.63;;;11.17;;
27225;SDS011;14732;51.074;3.788;2023-04-06T11:11:22;19.42;;;11.38;;
27225;SDS011;14732;51.074;3.788;2023-04-06T11:13:49;19.77;;;10.95;;
27225;SDS011;14732;51.074;3.788;2023-04-06T11:16:17;20.08;;;11.63;;
27225;SDS011;14732;51.074;3.788;2023-04-06T11:18:48;16.48;;;10.27;;
27225;SDS011;14732;51.074;3.788;2023-04-06T11:21:18;14.60;;;9.73;;
27225;SDS011;14732;51.074;3.788;2023-04-06T11:23:45;18.15;;;10.32;;
27225;SDS011;14732;51.074;3.788;2023-04-06T11:26:11;14.52;;;9.00;;
27225;SDS011;14732;51.074;3.788;2023-04-06T11:28:39;14.32;;;9.57;;
27225;SDS011;14732;51.074;3.788;2023-04-06T11:31:07;14.63;;;9.63;;
27225;SDS011;14732;51.074;3.788;2023-04-06T11:33:37;14.73;;;9.13;;
27225;SDS011;14732;51.074;3.788;2023-04-06T11:36:03;13.00;;;8.52;;
27225;SDS011;14732;51.074;3.788;2023-04-06T11:38:30;12.63;;;8.13;;
27225;SDS011;14732;51.074;3.788;2023-04-06T11:40:56;11.02;;;7.93;;
27225;SDS011;14732;51.074;3.788;2023-04-06T11:43:26;12.55;;;8.07;;
27225;SDS011;14732;51.074;3.788;2023-04-06T11:46:04;13.02;;;7.63;;
27225;SDS011;14732;51.074;3.788;2023-04-06T11:48:31;12.23;;;7.35;;
27225;SDS011;14732;51.074;3.788;2023-04-06T11:50:58;10.52;;;7.40;;
27225;SDS011;14732;51.074;3.788;2023-04-06T11:53:29;11.13;;;7.72;;
27225;SDS011;14732;51.074;3.788;2023-04-06T11:55:55;11.23;;;8.15;;
27225;SDS011;14732;51.074;3.788;2023-04-06T11:58:21;12.75;;;7.75;;
27225;SDS011;14732;51.074;3.788;2023-04-06T12:00:47;11.23;;;7.47;;
27225;SDS011;14732;51.074;3.788;2023-04-06T12:03:13;11.75;;;7.93;;
27225;SDS011;14732;51.074;3.788;2023-04-06T12:05:39;10.27;;;7.45;;
27225;SDS011;14732;51.074;3.788;2023-04-06T12:08:05;11.25;;;7.70;;
27225;SDS011;14732;51.074;3.788;2023-04-06T12:10:31;11.48;;;8.07;;
27225;SDS011;14732;51.074;3.788;2023-04-06T12:12:56;14.38;;;7.90;;
27225;SDS011;14732;51.074;3.788;2023-04-06T12:15:22;11.60;;;8.95;;
27225;SDS011;14732;51.074;3.788;2023-04-06T12:17:48;13.98;;;8.35;;
27225;SDS011;14732;51.074;3.788;2023-04-06T12:20:14;13.35;;;8.65;;
27225;SDS011;14732;51.074;3.788;2023-04-06T12:22:40;11.65;;;8.43;;
27225;SDS011;14732;51.074;3.788;2023-04-06T12:25:06;12.43;;;8.40;;
27225;SDS011;14732;51.074;3.788;2023-04-06T12:27:32;12.73;;;8.55;;
27225;SDS011;14732;51.074;3.788;2023-04-06T12:29:58;12.57;;;9.00;;
27225;SDS011;14732;51.074;3.788;2023-04-06T12:32:24;13.75;;;9.40;;
27225;SDS011;14732;51.074;3.788;2023-04-06T12:34:53;14.88;;;10.05;;
27225;SDS011;14732;51.074;3.788;2023-04-06T12:37:19;17.20;;;11.33;;
27225;SDS011;14732;51.074;3.788;2023-04-06T12:39:45;18.02;;;10.73;;
27225;SDS011;14732;51.074;3.788;2023-04-06T12:42:11;18.48;;;12.35;;
27225;SDS011;14732;51.074;3.788;2023-04-06T12:44:40;17.77;;;11.85;;
27225;SDS011;14732;51.074;3.788;2023-04-06T12:47:07;15.35;;;11.25;;
27225;SDS011;14732;51.074;3.788;2023-04-06T12:49:33;18.73;;;12.00;;
27225;SDS011;14732;51.074;3.788;2023-04-06T12:51:59;17.15;;;11.60;;
27225;SDS011;14732;51.074;3.788;2023-04-06T12:54:24;16.00;;;10.73;;
27225;SDS011;14732;51.074;3.788;2023-04-06T12:56:51;18.08;;;11.70;;
27225;SDS011;14732;51.074;3.788;2023-04-06T12:59:17;18.08;;;12.00;;
27225;SDS011;14732;51.074;3.788;2023-04-06T13:01:43;18.08;;;11.73;;
27225;SDS011;14732;51.074;3.788;2023-04-06T13:04:09;17.85;;;12.13;;
27225;SDS011;14732;51.074;3.788;2023-04-06T13:06:35;19.08;;;12.90;;
27225;SDS011;14732;51.074;3.788;2023-04-06T13:09:00;15.80;;;11.35;;
27225;SDS011;14732;51.074;3.788;2023-04-06T13:11:26;18.15;;;12.80;;
27225;SDS011;14732;51.074;3.788;2023-04-06T13:13:52;18.15;;;11.75;;
27225;SDS011;14732;51.074;3.788;2023-04-06T13:16:17;21.02;;;13.18;;
27225;SDS011;14732;51.074;3.788;2023-04-06T13:18:43;18.58;;;12.73;;
27225;SDS011;14732;51.074;3.788;2023-04-06T13:21:09;19.67;;;12.38;;
27225;SDS011;14732;51.074;3.788;2023-04-06T13:23:40;17.77;;;12.18;;
27225;SDS011;14732;51.074;3.788;2023-04-06T13:26:06;17.23;;;12.02;;
27225;SDS011;14732;51.074;3.788;2023-04-06T13:28:33;17.85;;;12.00;;
27225;SDS011;14732;51.074;3.788;2023-04-06T13:31:00;17.27;;;12.20;;
27225;SDS011;14732;51.074;3.788;2023-04-06T13:33:27;19.05;;;12.13;;
27225;SDS011;14732;51.074;3.788;2023-04-06T13:35:53;19.20;;;11.63;;
27225;SDS011;14732;51.074;3.788;2023-04-06T13:38:19;19.83;;;12.43;;
27225;SDS011;14732;51.074;3.788;2023-04-06T13:40:45;17.42;;;11.93;;
27225;SDS011;14732;51.074;3.788;2023-04-06T13:43:10;18.42;;;12.18;;
27225;SDS011;14732;51.074;3.788;2023-04-06T13:45:36;16.25;;;12.00;;
27225;SDS011;14732;51.074;3.788;2023-04-06T13:48:03;15.65;;;12.30;;
27225;SDS011;14732;51.074;3.788;2023-04-06T13:50:29;16.77;;;11.65;;
27225;SDS011;14732;51.074;3.788;2023-04-06T13:52:55;14.98;;;11.48;;
27225;SDS011;14732;51.074;3.788;2023-04-06T13:55:21;16.90;;;11.88;;
27225;SDS011;14732;51.074;3.788;2023-04-06T13:57:51;19.75;;;13.25;;
27225;SDS011;14732;51.074;3.788;2023-04-06T14:00:16;18.63;;;13.00;;
27225;SDS011;14732;51.074;3.788;2023-04-06T14:02:43;20.05;;;13.00;;
27225;SDS011;14732;51.074;3.788;2023-04-06T14:05:09;19.50;;;12.85;;
27225;SDS011;14732;51.074;3.788;2023-04-06T14:07:35;20.92;;;12.77;;
27225;SDS011;14732;51.074;3.788;2023-04-06T14:10:01;20.15;;;12.70;;
27225;SDS011;14732;51.074;3.788;2023-04-06T14:12:27;21.02;;;14.43;;
27225;SDS011;14732;51.074;3.788;2023-04-06T14:14:53;19.98;;;14.02;;
27225;SDS011;14732;51.074;3.788;2023-04-06T14:17:18;22.80;;;14.13;;
27225;SDS011;14732;51.074;3.788;2023-04-06T14:19:44;23.98;;;15.45;;
27225;SDS011;14732;51.074;3.788;2023-04-06T14:22:10;21.83;;;14.80;;
27225;SDS011;14732;51.074;3.788;2023-04-06T14:24:35;21.77;;;13.20;;
27225;SDS011;14732;51.074;3.788;2023-04-06T14:27:02;21.38;;;14.45;;
27225;SDS011;14732;51.074;3.788;2023-04-06T14:29:28;18.98;;;13.70;;